createdAt,value
2022-09-15T00:06:08.093Z,973.1
2022-09-15T00:20:37.131Z,973.1
2022-09-15T00:35:07.411Z,973.2
2022-09-15T00:49:36.992Z,973.3
2022-09-15T01:04:07.198Z,973.4
2022-09-15T01:18:36.946Z,973.3
2022-09-15T01:33:07.219Z,973.4
2022-09-15T01:47:37.414Z,973.3
2022-09-15T02:02:07.320Z,973.3
2022-09-15T02:16:35.578Z,973.4
2022-09-15T02:31:04.945Z,973.4
2022-09-15T02:45:36.259Z,973.4
2022-09-15T03:00:04.367Z,973.5
2022-09-15T03:14:32.999Z,973.5
2022-09-15T03:29:02.054Z,973.5
2022-09-15T03:43:31.033Z,973.6
2022-09-15T03:58:00.231Z,973.6
2022-09-15T04:12:29.714Z,973.5
2022-09-15T04:26:59.109Z,973.7
2022-09-15T04:41:28.420Z,973.7
2022-09-15T04:56:03.223Z,973.8
2022-09-15T05:10:34.387Z,973.9
2022-09-15T05:25:01.162Z,974.1
2022-09-15T05:39:31.391Z,974
2022-09-15T05:54:02.957Z,974
2022-09-15T06:08:33.683Z,974.1
2022-09-15T06:23:03.698Z,974.2
2022-09-15T06:37:33.703Z,974.2
2022-09-15T06:52:04.454Z,974.4
2022-09-15T07:06:35.308Z,974.4
2022-09-15T07:21:05.930Z,974.6
2022-09-15T07:35:36.471Z,974.6
2022-09-15T07:50:07.268Z,974.8
2022-09-15T08:04:38.564Z,974.9
2022-09-15T08:19:10.780Z,975
2022-09-15T08:33:46.278Z,975.1
2022-09-15T08:48:12.567Z,975.1
2022-09-15T09:02:45.607Z,975.2
2022-09-15T09:17:16.124Z,975.3
2022-09-15T09:31:53.005Z,975.4
2022-09-15T09:46:22.821Z,975.5
2022-09-15T10:00:47.257Z,975.5
2022-09-15T10:15:17.906Z,975.5
2022-09-15T10:29:49.263Z,975.5
2022-09-15T10:44:19.048Z,975.5
2022-09-15T10:58:48.728Z,975.5
2022-09-15T11:13:19.396Z,975.5
2022-09-15T11:27:49.393Z,975.6
2022-09-15T11:42:19.705Z,975.7
2022-09-15T11:56:50.185Z,975.6
2022-09-15T12:11:20.116Z,975.7
2022-09-15T12:25:49.187Z,975.6
2022-09-15T12:40:19.649Z,975.8
2022-09-15T12:54:49.245Z,975.8
2022-09-15T13:09:19.502Z,975.9
2022-09-15T13:23:49.330Z,976
2022-09-15T13:38:32.372Z,975.9
2022-09-15T13:52:54.480Z,975.9
2022-09-15T14:07:22.875Z,975.8
2022-09-15T14:21:59.018Z,975.8
2022-09-15T14:36:28.993Z,975.9
2022-09-15T14:51:02.238Z,975.9
2022-09-15T15:05:34.394Z,975.9
2022-09-15T15:20:05.627Z,976
2022-09-15T15:34:31.774Z,975.9
2022-09-15T15:49:01.114Z,975.9
2022-09-15T16:03:31.121Z,975.9
2022-09-15T16:18:01.121Z,975.9
2022-09-15T16:32:30.997Z,975.9
2022-09-15T16:47:00.592Z,975.7
2022-09-15T17:01:30.403Z,975.8
2022-09-15T17:16:00.148Z,976
2022-09-15T17:30:29.247Z,976.1
2022-09-15T17:44:58.284Z,976.1
2022-09-15T17:59:27.638Z,976.1
2022-09-15T18:13:57.360Z,976.2
2022-09-15T18:28:25.119Z,976.4
2022-09-15T18:42:54.986Z,976.5
2022-09-15T18:57:24.610Z,976.6
2022-09-15T19:11:54.698Z,976.6
2022-09-15T19:26:24.638Z,976.7
2022-09-15T19:40:55.779Z,976.7
2022-09-15T19:55:24.932Z,976.8
2022-09-15T20:09:53.606Z,976.8
2022-09-15T20:24:22.925Z,976.9
2022-09-15T20:38:53.543Z,977
2022-09-15T20:53:24.501Z,977
2022-09-15T21:22:27.199Z,977.1
2022-09-15T21:36:55.365Z,977.2
2022-09-15T21:51:25.699Z,977.3
2022-09-15T22:05:55.621Z,977.4
2022-09-15T22:20:31.286Z,977.4
2022-09-15T22:35:02.599Z,977.4
2022-09-15T22:49:27.645Z,977.4
2022-09-15T23:03:56.291Z,977.4
2022-09-15T23:18:25.437Z,977.5
2022-09-15T23:32:55.173Z,977.4
2022-09-15T23:47:23.559Z,977.3
